sensor_id;sensor_type;location;lat;lon;timestamp;P1;durP1;ratioP1;P2;durP2;ratioP2
28836;SDS011;50669;50.982;11.022;2023-08-06T00:01:27;1.30;;;1.20;;
28836;SDS011;50669;50.982;11.022;2023-08-06T00:03:52;1.20;;;1.02;;
28836;SDS011;50669;50.982;11.022;2023-08-06T00:06:18;1.20;;;1.10;;
28836;SDS011;50669;50.982;11.022;2023-08-06T00:08:43;1.30;;;1.20;;
28836;SDS011;50669;50.982;11.022;2023-08-06T00:11:09;1.23;;;1.13;;
28836;SDS011;50669;50.982;11.022;2023-08-06T00:13:35;1.13;;;1.02;;
28836;SDS011;50669;50.982;11.022;2023-08-06T00:16:10;1.20;;;1.10;;
28836;SDS011;50669;50.982;11.022;2023-08-06T00:18:36;1.35;;;1.25;;
28836;SDS011;50669;50.982;11.022;2023-08-06T00:21:02;1.38;;;1.27;;
28836;SDS011;50669;50.982;11.022;2023-08-06T00:23:30;1.55;;;1.30;;
28836;SDS011;50669;50.982;11.022;2023-08-06T00:25:56;1.30;;;1.20;;
28836;SDS011;50669;50.982;11.022;2023-08-06T00:28:21;1.67;;;1.50;;
28836;SDS011;50669;50.982;11.022;2023-08-06T00:30:52;1.27;;;1.15;;
28836;SDS011;50669;50.982;11.022;2023-08-06T00:33:19;1.30;;;1.20;;
28836;SDS011;50669;50.982;11.022;2023-08-06T00:35:47;0.90;;;0.90;;
28836;SDS011;50669;50.982;11.022;2023-08-06T00:38:12;1.20;;;1.10;;
28836;SDS011;50669;50.982;11.022;2023-08-06T00:40:38;1.30;;;1.20;;
28836;SDS011;50669;50.982;11.022;2023-08-06T00:43:09;1.52;;;1.27;;
28836;SDS011;50669;50.982;11.022;2023-08-06T00:45:37;1.67;;;1.30;;
28836;SDS011;50669;50.982;11.022;2023-08-06T00:48:05;1.60;;;1.50;;
28836;SDS011;50669;50.982;11.022;2023-08-06T00:50:32;1.40;;;1.30;;
28836;SDS011;50669;50.982;11.022;2023-08-06T00:53:00;1.33;;;1.10;;
28836;SDS011;50669;50.982;11.022;2023-08-06T00:55:29;1.38;;;1.25;;
28836;SDS011;50669;50.982;11.022;2023-08-06T00:57:55;1.35;;;1.15;;
28836;SDS011;50669;50.982;11.022;2023-08-06T01:00:25;1.20;;;1.10;;
28836;SDS011;50669;50.982;11.022;2023-08-06T01:02:52;1.60;;;1.30;;
28836;SDS011;50669;50.982;11.022;2023-08-06T01:05:19;1.20;;;1.10;;
28836;SDS011;50669;50.982;11.022;2023-08-06T01:15:49;1.30;;;1.20;;
28836;SDS011;50669;50.982;11.022;2023-08-06T01:18:16;1.30;;;1.20;;
28836;SDS011;50669;50.982;11.022;2023-08-06T01:20:42;1.15;;;1.10;;
28836;SDS011;50669;50.982;11.022;2023-08-06T01:23:07;1.50;;;1.30;;
28836;SDS011;50669;50.982;11.022;2023-08-06T01:25:33;1.27;;;1.17;;
28836;SDS011;50669;50.982;11.022;2023-08-06T01:28:11;1.30;;;1.20;;
28836;SDS011;50669;50.982;11.022;2023-08-06T01:30:47;1.75;;;1.17;;
28836;SDS011;50669;50.982;11.022;2023-08-06T01:33:16;1.30;;;1.20;;
28836;SDS011;50669;50.982;11.022;2023-08-06T01:35:48;1.48;;;1.38;;
28836;SDS011;50669;50.982;11.022;2023-08-06T01:38:18;1.40;;;1.30;;
28836;SDS011;50669;50.982;11.022;2023-08-06T01:40:44;1.23;;;1.13;;
28836;SDS011;50669;50.982;11.022;2023-08-06T01:43:10;1.48;;;1.38;;
28836;SDS011;50669;50.982;11.022;2023-08-06T01:45:36;1.23;;;1.13;;
28836;SDS011;50669;50.982;11.022;2023-08-06T01:48:04;1.30;;;1.20;;
28836;SDS011;50669;50.982;11.022;2023-08-06T01:50:29;1.23;;;1.13;;
28836;SDS011;50669;50.982;11.022;2023-08-06T01:52:55;1.40;;;1.30;;
28836;SDS011;50669;50.982;11.022;2023-08-06T01:55:23;1.42;;;1.30;;
28836;SDS011;50669;50.982;11.022;2023-08-06T01:57:48;1.67;;;1.52;;
28836;SDS011;50669;50.982;11.022;2023-08-06T02:00:14;1.38;;;1.27;;
28836;SDS011;50669;50.982;11.022;2023-08-06T02:02:40;1.40;;;1.20;;
28836;SDS011;50669;50.982;11.022;2023-08-06T02:05:08;1.23;;;1.13;;
28836;SDS011;50669;50.982;11.022;2023-08-06T02:07:34;1.17;;;1.08;;
28836;SDS011;50669;50.982;11.022;2023-08-06T02:10:00;1.20;;;1.00;;
28836;SDS011;50669;50.982;11.022;2023-08-06T02:12:25;1.20;;;1.10;;
28836;SDS011;50669;50.982;11.022;2023-08-06T02:14:53;1.10;;;1.00;;
28836;SDS011;50669;50.982;11.022;2023-08-06T02:17:19;1.40;;;1.23;;
28836;SDS011;50669;50.982;11.022;2023-08-06T02:19:44;1.42;;;1.25;;
28836;SDS011;50669;50.982;11.022;2023-08-06T02:22:10;1.25;;;1.15;;
28836;SDS011;50669;50.982;11.022;2023-08-06T02:24:36;1.55;;;1.33;;
28836;SDS011;50669;50.982;11.022;2023-08-06T02:27:01;1.60;;;1.42;;
28836;SDS011;50669;50.982;11.022;2023-08-06T02:29:31;1.48;;;1.30;;
28836;SDS011;50669;50.982;11.022;2023-08-06T02:31:59;1.73;;;1.30;;
28836;SDS011;50669;50.982;11.022;2023-08-06T02:34:27;1.30;;;1.20;;
28836;SDS011;50669;50.982;11.022;2023-08-06T02:36:55;1.17;;;1.08;;
28836;SDS011;50669;50.982;11.022;2023-08-06T02:39:25;1.38;;;1.27;;
28836;SDS011;50669;50.982;11.022;2023-08-06T02:41:51;1.70;;;1.30;;
28836;SDS011;50669;50.982;11.022;2023-08-06T02:44:19;1.45;;;1.33;;
28836;SDS011;50669;50.982;11.022;2023-08-06T02:46:44;1.55;;;1.45;;
28836;SDS011;50669;50.982;11.022;2023-08-06T02:49:10;1.52;;;1.33;;
28836;SDS011;50669;50.982;11.022;2023-08-06T02:51:36;1.38;;;1.27;;
28836;SDS011;50669;50.982;11.022;2023-08-06T02:54:04;1.60;;;1.50;;
28836;SDS011;50669;50.982;11.022;2023-08-06T02:56:29;1.33;;;1.23;;
28836;SDS011;50669;50.982;11.022;2023-08-06T02:58:55;1.15;;;1.00;;
28836;SDS011;50669;50.982;11.022;2023-08-06T03:01:23;1.30;;;1.10;;
28836;SDS011;50669;50.982;11.022;2023-08-06T03:03:53;1.70;;;1.43;;
28836;SDS011;50669;50.982;11.022;2023-08-06T03:06:19;1.20;;;1.10;;
28836;SDS011;50669;50.982;11.022;2023-08-06T03:08:44;1.50;;;1.40;;
28836;SDS011;50669;50.982;11.022;2023-08-06T03:11:10;1.50;;;1.40;;
28836;SDS011;50669;50.982;11.022;2023-08-06T03:13:38;1.10;;;1.00;;
28836;SDS011;50669;50.982;11.022;2023-08-06T03:16:06;1.52;;;1.35;;
28836;SDS011;50669;50.982;11.022;2023-08-06T03:18:32;1.50;;;1.40;;
28836;SDS011;50669;50.982;11.022;2023-08-06T03:21:00;1.90;;;1.38;;
28836;SDS011;50669;50.982;11.022;2023-08-06T03:23:27;1.42;;;1.33;;
28836;SDS011;50669;50.982;11.022;2023-08-06T03:25:53;1.55;;;1.42;;
28836;SDS011;50669;50.982;11.022;2023-08-06T03:28:21;1.20;;;1.10;;
28836;SDS011;50669;50.982;11.022;2023-08-06T03:30:47;1.40;;;1.30;;
28836;SDS011;50669;50.982;11.022;2023-08-06T03:33:13;1.50;;;1.40;;
28836;SDS011;50669;50.982;11.022;2023-08-06T03:35:38;1.30;;;1.20;;
28836;SDS011;50669;50.982;11.022;2023-08-06T03:38:04;1.40;;;1.30;;
28836;SDS011;50669;50.982;11.022;2023-08-06T03:40:30;1.25;;;1.15;;
28836;SDS011;50669;50.982;11.022;2023-08-06T03:42:55;1.20;;;1.10;;
28836;SDS011;50669;50.982;11.022;2023-08-06T03:45:21;1.40;;;1.30;;
28836;SDS011;50669;50.982;11.022;2023-08-06T03:47:47;1.00;;;1.00;;
28836;SDS011;50669;50.982;11.022;2023-08-06T03:50:15;1.30;;;1.20;;
28836;SDS011;50669;50.982;11.022;2023-08-06T03:52:41;1.33;;;1.23;;
28836;SDS011;50669;50.982;11.022;2023-08-06T03:55:06;1.13;;;1.02;;
28836;SDS011;50669;50.982;11.022;2023-08-06T03:57:34;1.50;;;1.40;;
28836;SDS011;50669;50.982;11.022;2023-08-06T04:00:03;1.60;;;1.40;;
28836;SDS011;50669;50.982;11.022;2023-08-06T04:02:29;1.30;;;1.20;;
28836;SDS011;50669;50.982;11.022;2023-08-06T04:04:57;1.52;;;1.42;;
28836;SDS011;50669;50.982;11.022;2023-08-06T04:07:25;1.63;;;1.38;;
28836;SDS011;50669;50.982;11.022;2023-08-06T04:09:54;1.30;;;1.20;;
28836;SDS011;50669;50.982;11.022;2023-08-06T04:12:22;1.45;;;1.35;;
28836;SDS011;50669;50.982;11.022;2023-08-06T04:14:48;1.35;;;1.25;;
28836;SDS011;50669;50.982;11.022;2023-08-06T04:17:14;1.30;;;1.20;;
28836;SDS011;50669;50.982;11.022;2023-08-06T04:19:45;1.42;;;1.20;;
28836;SDS011;50669;50.982;11.022;2023-08-06T04:22:17;1.20;;;1.10;;
28836;SDS011;50669;50.982;11.022;2023-08-06T04:24:45;0.90;;;0.90;;
28836;SDS011;50669;50.982;11.022;2023-08-06T04:27:12;1.80;;;1.50;;
28836;SDS011;50669;50.982;11.022;2023-08-06T04:29:38;1.45;;;1.20;;
28836;SDS011;50669;50.982;11.022;2023-08-06T04:32:05;1.20;;;1.10;;
28836;SDS011;50669;50.982;11.022;2023-08-06T04:34:33;1.15;;;1.05;;
28836;SDS011;50669;50.982;11.022;2023-08-06T04:36:59;1.48;;;1.38;;
28836;SDS011;50669;50.982;11.022;2023-08-06T04:39:25;1.65;;;1.42;;
28836;SDS011;50669;50.982;11.022;2023-08-06T04:41:51;1.23;;;1.13;;
28836;SDS011;50669;50.982;11.022;2023-08-06T04:44:20;1.25;;;1.15;;
28836;SDS011;50669;50.982;11.022;2023-08-06T04:46:48;1.25;;;1.13;;
28836;SDS011;50669;50.982;11.022;2023-08-06T04:49:14;1.35;;;1.10;;
28836;SDS011;50669;50.982;11.022;2023-08-06T04:51:41;1.20;;;1.10;;
28836;SDS011;50669;50.982;11.022;2023-08-06T04:54:07;1.38;;;1.27;;
28836;SDS011;50669;50.982;11.022;2023-08-06T04:56:35;1.42;;;1.30;;
28836;SDS011;50669;50.982;11.022;2023-08-06T04:59:01;1.20;;;1.10;;
28836;SDS011;50669;50.982;11.022;2023-08-06T05:01:29;1.30;;;1.20;;
28836;SDS011;50669;50.982;11.022;2023-08-06T05:03:54;1.33;;;1.13;;
28836;SDS011;50669;50.982;11.022;2023-08-06T05:06:22;1.67;;;1.58;;
28836;SDS011;50669;50.982;11.022;2023-08-06T05:08:48;1.20;;;1.10;;
28836;SDS011;50669;50.982;11.022;2023-08-06T05:11:14;1.40;;;1.30;;
28836;SDS011;50669;50.982;11.022;2023-08-06T05:13:42;1.77;;;1.50;;
28836;SDS011;50669;50.982;11.022;2023-08-06T05:16:09;1.40;;;1.30;;
28836;SDS011;50669;50.982;11.022;2023-08-06T05:18:35;1.40;;;1.30;;
28836;SDS011;50669;50.982;11.022;2023-08-06T05:21:02;1.33;;;1.23;;
28836;SDS011;50669;50.982;11.022;2023-08-06T05:23:28;1.30;;;1.20;;
28836;SDS011;50669;50.982;11.022;2023-08-06T05:25:53;1.38;;;1.27;;
28836;SDS011;50669;50.982;11.022;2023-08-06T05:28:23;1.13;;;1.02;;
28836;SDS011;50669;50.982;11.022;2023-08-06T05:30:51;1.58;;;1.00;;
28836;SDS011;50669;50.982;11.022;2023-08-06T05:33:17;1.10;;;1.00;;
28836;SDS011;50669;50.982;11.022;2023-08-06T05:35:43;1.45;;;1.10;;
28836;SDS011;50669;50.982;11.022;2023-08-06T05:38:08;1.27;;;1.17;;
28836;SDS011;50669;50.982;11.022;2023-08-06T05:40:34;1.63;;;1.35;;
28836;SDS011;50669;50.982;11.022;2023-08-06T05:43:00;1.58;;;1.38;;
28836;SDS011;50669;50.982;11.022;2023-08-06T05:45:28;1.20;;;1.10;;
28836;SDS011;50669;50.982;11.022;2023-08-06T05:47:53;1.15;;;1.05;;
28836;SDS011;50669;50.982;11.022;2023-08-06T05:50:22;1.42;;;1.30;;
28836;SDS011;50669;50.982;11.022;2023-08-06T05:52:48;1.35;;;1.25;;
28836;SDS011;50669;50.982;11.022;2023-08-06T05:55:16;1.42;;;1.20;;
28836;SDS011;50669;50.982;11.022;2023-08-06T05:57:44;1.20;;;1.10;;
28836;SDS011;50669;50.982;11.022;2023-08-06T06:00:10;1.35;;;1.25;;
28836;SDS011;50669;50.982;11.022;2023-08-06T06:02:36;1.38;;;1.27;;
28836;SDS011;50669;50.982;11.022;2023-08-06T06:05:02;1.30;;;1.20;;
28836;SDS011;50669;50.982;11.022;2023-08-06T06:07:27;0.88;;;0.88;;
28836;SDS011;50669;50.982;11.022;2023-08-06T06:09:53;1.30;;;1.20;;
28836;SDS011;50669;50.982;11.022;2023-08-06T06:12:18;1.25;;;1.15;;
28836;SDS011;50669;50.982;11.022;2023-08-06T06:14:44;1.38;;;1.27;;
28836;SDS011;50669;50.982;11.022;2023-08-06T06:17:10;1.00;;;0.93;;
28836;SDS011;50669;50.982;11.022;2023-08-06T06:19:36;1.40;;;1.30;;
28836;SDS011;50669;50.982;11.022;2023-08-06T06:22:01;1.23;;;1.13;;
28836;SDS011;50669;50.982;11.022;2023-08-06T06:24:27;1.50;;;1.40;;
28836;SDS011;50669;50.982;11.022;2023-08-06T06:26:55;1.10;;;1.00;;
28836;SDS011;50669;50.982;11.022;2023-08-06T06:29:23;1.40;;;1.20;;
28836;SDS011;50669;50.982;11.022;2023-08-06T06:31:51;1.30;;;1.20;;
28836;SDS011;50669;50.982;11.022;2023-08-06T06:34:17;1.40;;;1.30;;
28836;SDS011;50669;50.982;11.022;2023-08-06T06:36:45;1.20;;;1.10;;
28836;SDS011;50669;50.982;11.022;2023-08-06T06:39:13;1.17;;;1.08;;
28836;SDS011;50669;50.982;11.022;2023-08-06T06:41:41;1.30;;;1.10;;
28836;SDS011;50669;50.982;11.022;2023-08-06T06:44:09;1.08;;;0.98;;
28836;SDS011;50669;50.982;11.022;2023-08-06T06:46:40;1.10;;;1.00;;
28836;SDS011;50669;50.982;11.022;2023-08-06T06:49:06;1.30;;;1.20;;
28836;SDS011;50669;50.982;11.022;2023-08-06T06:51:31;1.33;;;1.13;;
28836;SDS011;50669;50.982;11.022;2023-08-06T06:54:02;1.25;;;1.15;;
28836;SDS011;50669;50.982;11.022;2023-08-06T06:56:27;1.17;;;1.08;;
28836;SDS011;50669;50.982;11.022;2023-08-06T06:58:53;1.50;;;1.40;;
28836;SDS011;50669;50.982;11.022;2023-08-06T07:01:21;1.50;;;1.40;;
28836;SDS011;50669;50.982;11.022;2023-08-06T07:03:47;1.10;;;1.00;;
28836;SDS011;50669;50.982;11.022;2023-08-06T07:06:14;1.30;;;1.00;;
28836;SDS011;50669;50.982;11.022;2023-08-06T07:08:43;1.27;;;1.10;;
28836;SDS011;50669;50.982;11.022;2023-08-06T07:11:09;1.17;;;1.08;;
28836;SDS011;50669;50.982;11.022;2023-08-06T07:13:35;1.15;;;1.05;;
28836;SDS011;50669;50.982;11.022;2023-08-06T07:16:04;0.90;;;0.90;;
28836;SDS011;50669;50.982;11.022;2023-08-06T07:18:30;1.17;;;0.95;;
28836;SDS011;50669;50.982;11.022;2023-08-06T07:21:00;1.15;;;1.05;;
28836;SDS011;50669;50.982;11.022;2023-08-06T07:23:26;1.35;;;1.20;;
28836;SDS011;50669;50.982;11.022;2023-08-06T07:25:52;1.23;;;1.13;;
28836;SDS011;50669;50.982;11.022;2023-08-06T07:28:20;0.88;;;0.80;;
28836;SDS011;50669;50.982;11.022;2023-08-06T07:30:46;1.25;;;1.15;;
28836;SDS011;50669;50.982;11.022;2023-08-06T07:33:16;1.33;;;1.23;;
28836;SDS011;50669;50.982;11.022;2023-08-06T07:35:46;1.10;;;1.00;;
28836;SDS011;50669;50.982;11.022;2023-08-06T07:38:14;1.20;;;1.10;;
28836;SDS011;50669;50.982;11.022;2023-08-06T07:40:42;1.23;;;1.13;;
28836;SDS011;50669;50.982;11.022;2023-08-06T07:43:10;1.20;;;1.10;;
28836;SDS011;50669;50.982;11.022;2023-08-06T07:45:35;1.30;;;1.20;;
28836;SDS011;50669;50.982;11.022;2023-08-06T07:48:02;0.95;;;0.90;;
28836;SDS011;50669;50.982;11.022;2023-08-06T07:50:30;1.20;;;1.08;;
28836;SDS011;50669;50.982;11.022;2023-08-06T07:52:56;1.17;;;1.08;;
28836;SDS011;50669;50.982;11.022;2023-08-06T07:55:21;1.10;;;1.00;;
28836;SDS011;50669;50.982;11.022;2023-08-06T07:57:47;1.15;;;1.05;;
28836;SDS011;50669;50.982;11.022;2023-08-06T08:00:13;1.02;;;0.93;;
28836;SDS011;50669;50.982;11.022;2023-08-06T08:02:38;1.20;;;1.10;;
28836;SDS011;50669;50.982;11.022;2023-08-06T08:05:04;1.00;;;0.90;;
28836;SDS011;50669;50.982;11.022;2023-08-06T08:07:32;1.02;;;1.00;;
28836;SDS011;50669;50.982;11.022;2023-08-06T08:10:00;1.30;;;1.17;;
28836;SDS011;50669;50.982;11.022;2023-08-06T08:12:26;1.05;;;0.95;;
28836;SDS011;50669;50.982;11.022;2023-08-06T08:14:51;1.38;;;1.08;;
28836;SDS011;50669;50.982;11.022;2023-08-06T08:17:17;1.50;;;1.20;;
28836;SDS011;50669;50.982;11.022;2023-08-06T08:19:43;1.30;;;1.20;;
28836;SDS011;50669;50.982;11.022;2023-08-06T08:22:13;1.17;;;1.08;;
28836;SDS011;50669;50.982;11.022;2023-08-06T08:24:39;1.30;;;1.17;;
28836;SDS011;50669;50.982;11.022;2023-08-06T08:27:04;1.05;;;0.93;;
28836;SDS011;50669;50.982;11.022;2023-08-06T08:29:30;1.17;;;1.08;;
28836;SDS011;50669;50.982;11.022;2023-08-06T08:31:56;1.10;;;0.98;;
28836;SDS011;50669;50.982;11.022;2023-08-06T08:34:22;1.20;;;1.05;;
28836;SDS011;50669;50.982;11.022;2023-08-06T08:36:49;1.33;;;1.20;;
28836;SDS011;50669;50.982;11.022;2023-08-06T08:39:15;1.38;;;1.23;;
28836;SDS011;50669;50.982;11.022;2023-08-06T08:41:41;0.70;;;0.70;;
28836;SDS011;50669;50.982;11.022;2023-08-06T08:44:10;1.08;;;0.93;;
28836;SDS011;50669;50.982;11.022;2023-08-06T08:46:38;1.02;;;0.93;;
28836;SDS011;50669;50.982;11.022;2023-08-06T08:49:05;1.13;;;0.90;;
28836;SDS011;50669;50.982;11.022;2023-08-06T08:51:34;1.10;;;1.00;;
28836;SDS011;50669;50.982;11.022;2023-08-06T08:54:02;1.10;;;1.00;;
28836;SDS011;50669;50.982;11.022;2023-08-06T08:56:31;0.98;;;0.88;;
28836;SDS011;50669;50.982;11.022;2023-08-06T08:59:01;1.05;;;0.90;;
28836;SDS011;50669;50.982;11.022;2023-08-06T09:01:32;1.10;;;1.00;;
28836;SDS011;50669;50.982;11.022;2023-08-06T09:04:02;1.23;;;1.13;;
28836;SDS011;50669;50.982;11.022;2023-08-06T09:06:31;1.30;;;1.08;;
28836;SDS011;50669;50.982;11.022;2023-08-06T09:09:05;1.30;;;1.20;;
28836;SDS011;50669;50.982;11.022;2023-08-06T09:11:36;1.07;;;1.00;;
28836;SDS011;50669;50.982;11.022;2023-08-06T09:14:06;1.20;;;1.10;;
28836;SDS011;50669;50.982;11.022;2023-08-06T09:16:37;0.90;;;0.90;;
28836;SDS011;50669;50.982;11.022;2023-08-06T09:21:41;1.20;;;1.10;;
28836;SDS011;50669;50.982;11.022;2023-08-06T09:24:12;0.90;;;0.90;;
28836;SDS011;50669;50.982;11.022;2023-08-06T09:26:43;1.20;;;1.08;;
28836;SDS011;50669;50.982;11.022;2023-08-06T09:29:12;1.10;;;1.00;;
28836;SDS011;50669;50.982;11.022;2023-08-06T09:31:42;1.00;;;0.90;;
28836;SDS011;50669;50.982;11.022;2023-08-06T09:34:17;0.85;;;0.85;;
28836;SDS011;50669;50.982;11.022;2023-08-06T09:36:48;1.30;;;1.20;;
28836;SDS011;50669;50.982;11.022;2023-08-06T09:39:16;1.20;;;1.10;;
28836;SDS011;50669;50.982;11.022;2023-08-06T09:41:46;1.00;;;0.90;;
28836;SDS011;50669;50.982;11.022;2023-08-06T09:44:19;1.10;;;1.00;;
28836;SDS011;50669;50.982;11.022;2023-08-06T09:46:50;1.33;;;1.00;;
28836;SDS011;50669;50.982;11.022;2023-08-06T09:49:22;1.13;;;1.02;;
28836;SDS011;50669;50.982;11.022;2023-08-06T09:51:51;0.77;;;0.70;;
28836;SDS011;50669;50.982;11.022;2023-08-06T09:54:18;1.05;;;0.95;;
28836;SDS011;50669;50.982;11.022;2023-08-06T09:56:44;1.10;;;1.00;;
28836;SDS011;50669;50.982;11.022;2023-08-06T09:59:10;0.98;;;0.80;;
28836;SDS011;50669;50.982;11.022;2023-08-06T10:01:38;0.82;;;0.80;;
28836;SDS011;50669;50.982;11.022;2023-08-06T10:04:05;0.88;;;0.73;;
28836;SDS011;50669;50.982;11.022;2023-08-06T10:06:37;1.10;;;1.00;;
28836;SDS011;50669;50.982;11.022;2023-08-06T10:09:06;1.13;;;1.02;;
28836;SDS011;50669;50.982;11.022;2023-08-06T10:11:32;0.95;;;0.82;;
28836;SDS011;50669;50.982;11.022;2023-08-06T10:14:00;1.15;;;1.00;;
28836;SDS011;50669;50.982;11.022;2023-08-06T10:16:34;1.20;;;1.10;;
28836;SDS011;50669;50.982;11.022;2023-08-06T10:19:01;0.80;;;0.80;;
28836;SDS011;50669;50.982;11.022;2023-08-06T10:21:28;1.30;;;1.10;;
28836;SDS011;50669;50.982;11.022;2023-08-06T10:23:56;1.00;;;0.90;;
28836;SDS011;50669;50.982;11.022;2023-08-06T10:26:25;1.10;;;1.00;;
28836;SDS011;50669;50.982;11.022;2023-08-06T10:28:52;0.70;;;0.70;;
28836;SDS011;50669;50.982;11.022;2023-08-06T10:31:18;0.82;;;0.82;;
28836;SDS011;50669;50.982;11.022;2023-08-06T10:33:44;1.05;;;0.95;;
28836;SDS011;50669;50.982;11.022;2023-08-06T10:36:12;0.88;;;0.88;;
28836;SDS011;50669;50.982;11.022;2023-08-06T10:38:47;0.82;;;0.82;;
28836;SDS011;50669;50.982;11.022;2023-08-06T10:41:26;0.80;;;0.80;;
28836;SDS011;50669;50.982;11.022;2023-08-06T10:44:06;1.20;;;1.10;;
28836;SDS011;50669;50.982;11.022;2023-08-06T10:46:35;0.85;;;0.85;;
28836;SDS011;50669;50.982;11.022;2023-08-06T10:49:01;1.17;;;1.08;;
28836;SDS011;50669;50.982;11.022;2023-08-06T10:51:27;0.80;;;0.80;;
28836;SDS011;50669;50.982;11.022;2023-08-06T10:53:53;0.98;;;0.90;;
28836;SDS011;50669;50.982;11.022;2023-08-06T10:56:22;0.88;;;0.88;;
28836;SDS011;50669;50.982;11.022;2023-08-06T10:58:49;0.80;;;0.73;;
28836;SDS011;50669;50.982;11.022;2023-08-06T11:01:16;1.20;;;1.00;;
28836;SDS011;50669;50.982;11.022;2023-08-06T11:03:46;1.15;;;1.05;;
28836;SDS011;50669;50.982;11.022;2023-08-06T11:06:21;1.15;;;1.00;;
28836;SDS011;50669;50.982;11.022;2023-08-06T11:08:54;1.15;;;0.88;;
28836;SDS011;50669;50.982;11.022;2023-08-06T11:11:22;1.13;;;1.00;;
28836;SDS011;50669;50.982;11.022;2023-08-06T11:13:53;1.00;;;0.90;;
28836;SDS011;50669;50.982;11.022;2023-08-06T11:16:20;0.93;;;0.93;;
28836;SDS011;50669;50.982;11.022;2023-08-06T11:18:52;0.75;;;0.75;;
28836;SDS011;50669;50.982;11.022;2023-08-06T11:21:22;0.70;;;0.65;;
28836;SDS011;50669;50.982;11.022;2023-08-06T11:23:51;1.33;;;1.08;;
28836;SDS011;50669;50.982;11.022;2023-08-06T11:26:20;0.90;;;0.80;;
28836;SDS011;50669;50.982;11.022;2023-08-06T11:28:49;1.17;;;1.08;;
28836;SDS011;50669;50.982;11.022;2023-08-06T11:31:25;0.75;;;0.75;;
28836;SDS011;50669;50.982;11.022;2023-08-06T11:33:51;1.00;;;0.90;;
28836;SDS011;50669;50.982;11.022;2023-08-06T11:36:32;0.70;;;0.70;;
28836;SDS011;50669;50.982;11.022;2023-08-06T11:38:59;0.98;;;0.93;;
28836;SDS011;50669;50.982;11.022;2023-08-06T11:41:27;0.60;;;0.60;;
28836;SDS011;50669;50.982;11.022;2023-08-06T11:43:57;1.23;;;1.13;;
28836;SDS011;50669;50.982;11.022;2023-08-06T11:46:23;1.05;;;0.95;;
28836;SDS011;50669;50.982;11.022;2023-08-06T11:48:50;1.15;;;1.05;;
28836;SDS011;50669;50.982;11.022;2023-08-06T11:51:25;0.90;;;0.90;;
28836;SDS011;50669;50.982;11.022;2023-08-06T11:53:55;0.77;;;0.77;;
28836;SDS011;50669;50.982;11.022;2023-08-06T11:56:26;0.98;;;0.88;;
28836;SDS011;50669;50.982;11.022;2023-08-06T11:58:54;0.80;;;0.80;;
28836;SDS011;50669;50.982;11.022;2023-08-06T12:01:20;0.70;;;0.70;;
28836;SDS011;50669;50.982;11.022;2023-08-06T12:03:46;0.70;;;0.70;;
28836;SDS011;50669;50.982;11.022;2023-08-06T12:06:11;0.73;;;0.70;;
28836;SDS011;50669;50.982;11.022;2023-08-06T12:08:37;0.93;;;0.80;;
28836;SDS011;50669;50.982;11.022;2023-08-06T12:11:03;1.20;;;1.10;;
28836;SDS011;50669;50.982;11.022;2023-08-06T12:13:29;1.02;;;0.90;;
28836;SDS011;50669;50.982;11.022;2023-08-06T12:15:54;0.90;;;0.90;;
28836;SDS011;50669;50.982;11.022;2023-08-06T12:18:24;1.10;;;1.00;;
28836;SDS011;50669;50.982;11.022;2023-08-06T12:20:50;0.90;;;0.90;;
28836;SDS011;50669;50.982;11.022;2023-08-06T12:23:16;1.10;;;1.02;;
28836;SDS011;50669;50.982;11.022;2023-08-06T12:25:44;0.80;;;0.80;;
28836;SDS011;50669;50.982;11.022;2023-08-06T12:28:09;0.90;;;0.80;;
28836;SDS011;50669;50.982;11.022;2023-08-06T12:30:38;1.10;;;1.00;;
28836;SDS011;50669;50.982;11.022;2023-08-06T12:33:06;0.75;;;0.75;;
28836;SDS011;50669;50.982;11.022;2023-08-06T12:35:32;1.00;;;0.95;;
28836;SDS011;50669;50.982;11.022;2023-08-06T12:38:01;0.75;;;0.75;;
28836;SDS011;50669;50.982;11.022;2023-08-06T12:40:27;0.70;;;0.70;;
28836;SDS011;50669;50.982;11.022;2023-08-06T12:42:52;1.00;;;0.90;;
28836;SDS011;50669;50.982;11.022;2023-08-06T12:45:18;1.15;;;0.90;;
28836;SDS011;50669;50.982;11.022;2023-08-06T12:47:47;0.80;;;0.80;;
28836;SDS011;50669;50.982;11.022;2023-08-06T12:50:13;1.17;;;1.08;;
28836;SDS011;50669;50.982;11.022;2023-08-06T12:52:39;0.80;;;0.80;;
28836;SDS011;50669;50.982;11.022;2023-08-06T12:55:04;1.00;;;0.90;;
28836;SDS011;50669;50.982;11.022;2023-08-06T12:57:32;1.38;;;1.00;;
28836;SDS011;50669;50.982;11.022;2023-08-06T12:59:59;1.10;;;0.95;;
28836;SDS011;50669;50.982;11.022;2023-08-06T13:02:32;1.20;;;0.90;;
28836;SDS011;50669;50.982;11.022;2023-08-06T13:05:00;0.70;;;0.70;;
28836;SDS011;50669;50.982;11.022;2023-08-06T13:07:30;0.80;;;0.80;;
28836;SDS011;50669;50.982;11.022;2023-08-06T13:09:58;0.85;;;0.85;;
28836;SDS011;50669;50.982;11.022;2023-08-06T13:12:24;0.80;;;0.80;;
28836;SDS011;50669;50.982;11.022;2023-08-06T13:14:52;1.00;;;0.90;;
28836;SDS011;50669;50.982;11.022;2023-08-06T13:17:18;0.73;;;0.73;;
28836;SDS011;50669;50.982;11.022;2023-08-06T13:19:43;1.05;;;0.90;;
28836;SDS011;50669;50.982;11.022;2023-08-06T13:22:09;0.80;;;0.80;;
28836;SDS011;50669;50.982;11.022;2023-08-06T13:24:37;0.95;;;0.80;;
28836;SDS011;50669;50.982;11.022;2023-08-06T13:27:03;0.80;;;0.80;;
28836;SDS011;50669;50.982;11.022;2023-08-06T13:29:31;0.60;;;0.60;;
28836;SDS011;50669;50.982;11.022;2023-08-06T13:31:56;0.75;;;0.75;;
28836;SDS011;50669;50.982;11.022;2023-08-06T13:34:24;0.80;;;0.80;;
28836;SDS011;50669;50.982;11.022;2023-08-06T13:36:52;0.73;;;0.73;;
28836;SDS011;50669;50.982;11.022;2023-08-06T13:39:18;0.73;;;0.73;;
28836;SDS011;50669;50.982;11.022;2023-08-06T13:41:44;1.00;;;0.90;;
28836;SDS011;50669;50.982;11.022;2023-08-06T13:44:12;0.95;;;0.90;;
28836;SDS011;50669;50.982;11.022;2023-08-06T13:46:43;0.70;;;0.70;;
28836;SDS011;50669;50.982;11.022;2023-08-06T13:49:08;0.80;;;0.80;;
28836;SDS011;50669;50.982;11.022;2023-08-06T13:51:34;0.75;;;0.75;;
28836;SDS011;50669;50.982;11.022;2023-08-06T13:54:03;0.70;;;0.70;;
28836;SDS011;50669;50.982;11.022;2023-08-06T13:56:28;0.60;;;0.60;;
28836;SDS011;50669;50.982;11.022;2023-08-06T13:58:56;0.98;;;0.80;;
28836;SDS011;50669;50.982;11.022;2023-08-06T14:01:23;1.00;;;0.82;;
28836;SDS011;50669;50.982;11.022;2023-08-06T14:03:48;0.80;;;0.80;;
28836;SDS011;50669;50.982;11.022;2023-08-06T14:06:14;0.80;;;0.80;;
28836;SDS011;50669;50.982;11.022;2023-08-06T14:08:42;0.68;;;0.68;;
28836;SDS011;50669;50.982;11.022;2023-08-06T14:11:10;0.95;;;0.85;;
28836;SDS011;50669;50.982;11.022;2023-08-06T14:13:38;0.82;;;0.82;;
28836;SDS011;50669;50.982;11.022;2023-08-06T14:16:08;1.02;;;0.90;;
28836;SDS011;50669;50.982;11.022;2023-08-06T14:18:36;0.88;;;0.85;;
28836;SDS011;50669;50.982;11.022;2023-08-06T14:21:03;0.70;;;0.70;;
28836;SDS011;50669;50.982;11.022;2023-08-06T14:23:29;1.20;;;0.93;;
28836;SDS011;50669;50.982;11.022;2023-08-06T14:25:54;0.70;;;0.70;;
28836;SDS011;50669;50.982;11.022;2023-08-06T14:28:23;0.80;;;0.75;;
28836;SDS011;50669;50.982;11.022;2023-08-06T14:30:51;0.77;;;0.70;;
28836;SDS011;50669;50.982;11.022;2023-08-06T14:33:19;0.60;;;0.60;;
28836;SDS011;50669;50.982;11.022;2023-08-06T14:35:44;1.00;;;0.90;;
28836;SDS011;50669;50.982;11.022;2023-08-06T14:38:10;0.90;;;0.90;;
28836;SDS011;50669;50.982;11.022;2023-08-06T14:40:38;1.00;;;0.90;;
28836;SDS011;50669;50.982;11.022;2023-08-06T14:43:09;1.00;;;0.90;;
28836;SDS011;50669;50.982;11.022;2023-08-06T14:45:39;0.90;;;0.90;;